Creston, Montana
Current Conditions -  °F | °C
As of 12:55 PM on Friday 28 Nov 2014 (Local Time) from KGPI Reporting Station
Overcast Overcast  
Wind Chill: 41°   Ceiling: 4500
Heat Index: 47°   Visibility: 10mi
Dew Point: 39°   Wind: 13mph
Humidity: 74%   Direction: 150°SSE
Pressure: 29.4"   Gusts: NA
Location:  48.1017°N, 113.751°W
Report Text: KGPI 281955Z 15011KT 10SM OVC045 08/04 A2940 RMK AO2 SLP962 T00830039
Loading
Personal Weather Stations






























Interactive Weather Map New forecast layout! Learn more

10-Day Weather Forecast

Advertisements
Track Severe Weather on mobile